Terminal Aerodrome Forecast
Issued by NWS Raleigh/Durham, NC

Home | Current Version | Previous Version | Text Only | Print | Product List | Glossary On
Versions: 1 2 3 4 5 6 7 8 9 10 11 12 13 14 15 16 17 18 19 20 21 22 23 24 25 26 27 28 29 30 31 32 33 34 35 36
000
FTUS42 KRAH 221720
TAFFAY
TAF
KFAY 221720Z 2218/2318 07005KT P6SM FEW030 SCT250
     FM230700 00000KT 1 1/2SM BR SCT003 BKN025
     FM230900 03003KT 1/2SM FG BKN003
     FM231300 03003KT P6SM SCT250=

USA.gov is the U.S. government's official web portal to all federal, state and local government web resources and services.